createdAt,value
2019-04-07T00:01:26.598Z,97781.98
2019-04-07T00:03:55.001Z,97782.47
2019-04-07T00:06:24.249Z,97779.01
2019-04-07T00:08:53.519Z,97790.39
2019-04-07T00:11:21.951Z,97779.48
2019-04-07T00:13:50.311Z,97782.97
2019-04-07T00:16:18.735Z,97780.81
2019-04-07T00:18:47.128Z,97782.27
2019-04-07T00:21:15.544Z,97785.25
2019-04-07T00:23:44.128Z,97782.61
2019-04-07T00:26:12.810Z,97787.56
2019-04-07T00:28:41.253Z,97784.91
2019-04-07T00:31:09.640Z,97783.22
2019-04-07T00:33:38.021Z,97785.87
2019-04-07T00:36:06.403Z,97789.83
2019-04-07T00:38:34.771Z,97788.52
2019-04-07T00:41:03.180Z,97785.53
2019-04-07T00:43:31.754Z,97791.66
2019-04-07T00:46:00.227Z,97784.21
2019-04-07T00:48:28.721Z,97780.25
2019-04-07T00:50:57.079Z,97785.53
2019-04-07T00:53:25.496Z,97778.92
2019-04-07T00:55:54.343Z,97779.41
2019-04-07T00:58:22.711Z,97773.78
2019-04-07T01:00:51.108Z,97777.13
2019-04-07T01:03:19.524Z,97774.12
2019-04-07T01:05:47.980Z,97772.32
2019-04-07T01:08:17.102Z,97768.02
2019-04-07T01:10:45.862Z,97769.81
2019-04-07T01:13:14.441Z,97762.36
2019-04-07T01:15:43.473Z,97757.84
2019-04-07T01:18:11.796Z,97757.84
2019-04-07T01:20:40.210Z,97763.69
2019-04-07T01:23:08.581Z,97769.34
2019-04-07T01:25:36.944Z,97768.97
2019-04-07T01:28:05.801Z,97767.31
2019-04-07T01:30:34.845Z,97766.33
2019-04-07T01:33:04.003Z,97769.96
2019-04-07T01:35:32.980Z,97770.77
2019-04-07T01:38:01.596Z,97764.30
2019-04-07T01:40:29.957Z,97764.30
2019-04-07T01:43:02.389Z,97771.28
2019-04-07T01:45:41.248Z,97763.83
2019-04-07T01:48:14.759Z,97761.66
2019-04-07T01:50:50.387Z,97769.11
2019-04-07T01:53:35.628Z,97764.30
2019-04-07T01:56:20.971Z,97760.84
2019-04-07T01:58:51.037Z,97767.45
2019-04-07T02:01:31.226Z,97768.27
2019-04-07T02:04:01.746Z,97768.78
2019-04-07T02:06:34.890Z,97764.45
2019-04-07T02:09:11.356Z,97759.16
2019-04-07T02:11:58.358Z,97760.01
2019-04-07T02:14:37.822Z,97762.31
2019-04-07T02:17:10.813Z,97757.03
2019-04-07T02:19:49.943Z,97760.99
2019-04-07T02:22:25.593Z,97758.34
2019-04-07T02:25:05.538Z,97755.70
2019-04-07T02:27:38.394Z,97756.19
2019-04-07T02:30:19.773Z,97758.34
2019-04-07T02:32:53.195Z,97758.45
2019-04-07T02:35:32.401Z,97751.04
2019-04-07T02:38:14.939Z,97755.81
2019-04-07T02:40:52.059Z,97752.84
2019-04-07T02:43:27.849Z,97756.33
2019-04-07T02:46:00.655Z,97755.81
2019-04-07T02:48:42.983Z,97757.14
2019-04-07T02:51:15.703Z,97757.14
2019-04-07T02:54:02.537Z,97757.98
2019-04-07T02:56:52.201Z,97758.45
2019-04-07T02:59:29.216Z,97762.42
2019-04-07T03:02:12.089Z,97760.77
2019-04-07T03:04:46.051Z,97764.73
2019-04-07T03:07:20.076Z,97768.22
2019-04-07T03:10:06.334Z,97772.19
2019-04-07T03:12:37.291Z,97773.98
2019-04-07T03:15:13.745Z,97772.80
2019-04-07T03:17:46.500Z,97775.30
2019-04-07T03:20:25.845Z,97778.42
2019-04-07T03:23:09.410Z,97778.79
2019-04-07T03:25:52.616Z,97773.98
2019-04-07T03:28:33.110Z,97777.94
2019-04-07T03:31:21.113Z,97778.79
2019-04-07T03:34:01.201Z,97777.47
2019-04-07T03:37:02.710Z,97780.59
2019-04-07T03:39:22.274Z,97780.25
2019-04-07T03:41:53.714Z,97783.37
2019-04-07T03:44:26.589Z,97778.09
2019-04-07T03:47:10.222Z,97786.34
2019-04-07T03:49:58.214Z,97785.40
2019-04-07T03:52:28.732Z,97790.31
2019-04-07T03:55:04.853Z,97790.31
2019-04-07T03:57:35.293Z,97794.28
2019-04-07T04:00:09.244Z,97793.80
2019-04-07T04:02:48.452Z,97792.95
2019-04-07T04:05:30.457Z,97794.78
2019-04-07T04:08:09.459Z,97795.59
2019-04-07T04:10:40.696Z,97794.42
2019-04-07T04:13:11.114Z,97788.66
2019-04-07T04:15:41.556Z,97793.61
2019-04-07T04:18:09.923Z,97794.42
2019-04-07T04:20:38.793Z,97797.06
2019-04-07T04:23:07.876Z,97793.61
2019-04-07T04:25:36.359Z,97785.51
2019-04-07T04:28:05.043Z,97798.38
2019-04-07T04:30:34.011Z,97799.23
2019-04-07T04:33:02.439Z,97799.23
2019-04-07T04:35:30.876Z,97805.50
2019-04-07T04:37:59.802Z,97807.30
2019-04-07T04:40:28.214Z,97803.81
2019-04-07T04:42:56.914Z,97808.14
2019-04-07T04:45:26.313Z,97808.25
2019-04-07T04:47:54.795Z,97811.41
2019-04-07T04:50:23.660Z,97814.37
2019-04-07T04:52:52.303Z,97816.69
2019-04-07T04:55:20.840Z,97813.67
2019-04-07T04:57:49.866Z,97813.67
2019-04-07T05:00:18.744Z,97816.31
2019-04-07T05:02:47.605Z,97816.83
2019-04-07T05:05:16.823Z,97820.28
2019-04-07T05:07:55.432Z,97819.95
2019-04-07T05:10:15.611Z,97819.95
2019-04-07T05:12:44.971Z,97818.63
2019-04-07T05:15:14.002Z,97819.10
2019-04-07T05:17:43.599Z,97818.63
2019-04-07T05:20:12.451Z,97827.88
2019-04-07T05:22:41.210Z,97826.55
2019-04-07T05:25:09.732Z,97830.98
2019-04-07T05:27:38.303Z,97827.88
2019-04-07T05:30:07.779Z,97831.36
2019-04-07T05:32:36.814Z,97831.84
2019-04-07T05:35:07.862Z,97837.13
2019-04-07T05:37:36.550Z,97835.80
2019-04-07T05:40:05.865Z,97838.08
2019-04-07T05:42:34.359Z,97834.11
2019-04-07T05:45:02.710Z,97838.78
2019-04-07T05:47:31.493Z,97845.25
2019-04-07T05:50:02.836Z,97843.11
2019-04-07T05:52:30.591Z,97843.59
2019-04-07T05:54:59.020Z,97844.44
2019-04-07T05:57:30.809Z,97851.52
2019-04-07T05:59:57.534Z,97859.45
2019-04-07T06:02:27.301Z,97860.29
2019-04-07T06:04:58.643Z,97858.97
2019-04-07T06:07:31.243Z,97858.13
2019-04-07T06:09:56.851Z,97860.63
2019-04-07T06:12:25.248Z,97858.13
2019-04-07T06:14:53.653Z,97858.59
2019-04-07T06:17:24.185Z,97853.69
2019-04-07T06:19:52.690Z,97853.55
2019-04-07T06:22:21.990Z,97860.34
2019-04-07T06:24:51.347Z,97857.37
2019-04-07T06:27:19.751Z,97859.02
2019-04-07T06:29:48.151Z,97855.57
2019-04-07T06:32:16.676Z,97857.70
2019-04-07T06:34:46.171Z,97856.91
2019-04-07T06:37:15.175Z,97860.06
2019-04-07T06:39:44.096Z,97853.48
2019-04-07T06:42:13.078Z,97860.59
2019-04-07T06:44:41.543Z,97857.38
2019-04-07T06:47:23.805Z,97862.25
2019-04-07T06:49:59.871Z,97867.34
2019-04-07T06:52:30.223Z,97865.11
2019-04-07T06:55:10.771Z,97864.20
2019-04-07T06:57:57.131Z,97863.44
2019-04-07T07:00:44.206Z,97869.36
2019-04-07T07:03:16.776Z,97870.95
2019-04-07T07:06:03.646Z,97866.22
2019-04-07T07:08:43.247Z,97868.28
2019-04-07T07:11:28.072Z,97872.33
2019-04-07T07:14:13.756Z,97874.58
2019-04-07T07:16:56.996Z,97879.47
2019-04-07T07:19:28.570Z,97879.88
2019-04-07T07:22:15.538Z,97878.45
2019-04-07T07:24:42.768Z,97879.84
2019-04-07T07:27:12.306Z,97880.39
2019-04-07T07:29:40.977Z,97878.16
2019-04-07T07:32:09.405Z,97881.83
2019-04-07T07:34:39.883Z,97882.09
2019-04-07T07:37:08.392Z,97881.53
2019-04-07T07:39:36.832Z,97880.45
2019-04-07T07:42:05.226Z,97882.66
2019-04-07T07:44:36.106Z,97874.78
2019-04-07T07:47:03.712Z,97871.69
2019-04-07T07:49:35.997Z,97871.12
2019-04-07T07:52:02.651Z,97875.16
2019-04-07T07:54:31.616Z,97880.22
2019-04-07T07:57:00.092Z,97876.16
2019-04-07T07:59:33.136Z,97878.36
2019-04-07T08:01:58.757Z,97876.40
2019-04-07T08:04:27.661Z,97886.77
2019-04-07T08:06:56.833Z,97885.61
2019-04-07T08:09:26.318Z,97885.83
2019-04-07T08:11:55.534Z,97885.85
2019-04-07T08:14:23.908Z,97885.91
2019-04-07T08:16:53.096Z,97881.30
2019-04-07T08:19:25.361Z,97890.13
2019-04-07T08:21:52.025Z,97890.03
2019-04-07T08:24:20.789Z,97882.61
2019-04-07T08:26:50.231Z,97888.94
2019-04-07T08:29:18.629Z,97882.99
2019-04-07T08:31:47.074Z,97895.47
2019-04-07T08:34:15.460Z,97889.53
2019-04-07T08:36:45.336Z,97893.89
2019-04-07T08:39:22.984Z,97890.48
2019-04-07T08:41:45.181Z,97893.16
2019-04-07T08:44:14.997Z,97891.52
2019-04-07T08:46:44.408Z,97899.53
2019-04-07T08:49:12.913Z,97892.58
2019-04-07T08:51:41.743Z,97899.80
2019-04-07T08:54:10.085Z,97894.52
2019-04-07T08:56:38.765Z,97889.08
2019-04-07T08:59:10.013Z,97888.56
2019-04-07T09:01:37.282Z,97892.11
2019-04-07T09:04:05.690Z,97885.48
2019-04-07T09:06:34.136Z,97893.83
2019-04-07T09:09:03.970Z,97894.56
2019-04-07T09:11:33.536Z,97890.95
2019-04-07T09:14:04.240Z,97892.80
2019-04-07T09:16:53.255Z,97894.50
2019-04-07T09:19:22.475Z,97895.84
2019-04-07T09:21:55.818Z,97897.08
2019-04-07T09:24:44.069Z,97896.28
2019-04-07T09:27:17.139Z,97896.16
2019-04-07T09:29:52.312Z,97893.88
2019-04-07T09:32:22.590Z,97902.06
2019-04-07T09:35:01.999Z,97898.83
2019-04-07T09:37:32.390Z,97900.27
2019-04-07T09:40:17.251Z,97904.05
2019-04-07T09:42:49.572Z,97899.19
2019-04-07T09:45:19.626Z,97901.60
2019-04-07T09:47:49.786Z,97908.15
2019-04-07T09:50:27.937Z,97914.48
2019-04-07T09:53:17.044Z,97910.02
2019-04-07T09:55:59.213Z,97908.09
2019-04-07T09:58:44.131Z,97901.18
2019-04-07T10:01:19.903Z,97908.70
2019-04-07T10:03:53.653Z,97905.10
2019-04-07T10:06:39.134Z,97905.98
2019-04-07T10:09:23.703Z,97904.47
2019-04-07T10:12:10.216Z,97906.77
2019-04-07T10:14:56.355Z,97913.41
2019-04-07T10:17:29.182Z,97914.13
2019-04-07T10:20:06.486Z,97916.95
2019-04-07T10:22:55.257Z,97914.41
2019-04-07T10:25:37.649Z,97922.03
2019-04-07T10:28:12.539Z,97908.92
2019-04-07T10:30:58.500Z,97909.55
2019-04-07T10:33:29.361Z,97909.73
2019-04-07T10:36:06.105Z,97908.70
2019-04-07T10:38:36.392Z,97910.47
2019-04-07T10:41:15.942Z,97909.97
2019-04-07T10:43:55.784Z,97902.19
2019-04-07T10:46:28.418Z,97907.06
2019-04-07T10:49:14.724Z,97907.70
2019-04-07T10:51:45.824Z,97905.75
2019-04-07T10:54:22.210Z,97908.64
2019-04-07T10:57:07.567Z,97908.52
2019-04-07T10:59:49.624Z,97910.30
2019-04-07T11:02:31.411Z,97912.37
2019-04-07T11:05:01.912Z,97907.99
2019-04-07T11:07:32.645Z,97909.64
2019-04-07T11:10:03.586Z,97907.66
2019-04-07T11:12:45.852Z,97899.88
2019-04-07T11:15:22.324Z,97902.79
2019-04-07T11:17:52.766Z,97906.13
2019-04-07T11:20:38.505Z,97893.84
2019-04-07T11:23:13.972Z,97902.03
2019-04-07T11:25:44.975Z,97901.77
2019-04-07T11:28:24.334Z,97903.83
2019-04-07T11:30:54.378Z,97898.13
2019-04-07T11:33:24.767Z,97898.41
2019-04-07T11:35:54.975Z,97898.80
2019-04-07T11:38:27.831Z,97897.13
2019-04-07T11:41:17.006Z,97900.73
2019-04-07T11:44:02.204Z,97898.23
2019-04-07T11:46:41.121Z,97899.55
2019-04-07T11:49:13.100Z,97904.09
2019-04-07T11:52:00.019Z,97896.13
2019-04-07T11:54:49.154Z,97888.75
2019-04-07T11:57:19.266Z,97895.77
2019-04-07T11:59:55.634Z,97891.50
2019-04-07T12:02:43.535Z,97895.34
2019-04-07T12:05:31.123Z,97892.25
2019-04-07T12:08:10.524Z,97897.36
2019-04-07T12:10:54.644Z,97891.98
2019-04-07T12:13:26.933Z,97895.88
2019-04-07T12:15:57.969Z,97882.60
2019-04-07T12:18:28.149Z,97894.21
2019-04-07T12:21:20.105Z,97897.34
2019-04-07T12:23:58.448Z,97897.61
2019-04-07T12:26:46.303Z,97896.82
2019-04-07T12:29:19.328Z,97895.16
2019-04-07T12:32:02.366Z,97902.84
2019-04-07T12:34:33.263Z,97893.01
2019-04-07T12:37:18.799Z,97895.49
2019-04-07T12:39:50.899Z,97914.94
2019-04-07T12:42:33.334Z,97914.13
2019-04-07T12:45:15.573Z,97911.11
2019-04-07T12:47:49.176Z,97908.44
2019-04-07T12:50:28.894Z,97913.52
2019-04-07T12:53:15.517Z,97905.71
2019-04-07T12:55:53.387Z,97915.48
2019-04-07T12:58:33.744Z,97903.85
2019-04-07T13:01:16.265Z,97899.52
2019-04-07T13:03:55.926Z,97904.64
2019-04-07T13:06:32.016Z,97898.81
2019-04-07T13:09:05.948Z,97897.32
2019-04-07T13:11:39.504Z,97894.15
2019-04-07T13:14:16.812Z,97884.48
2019-04-07T13:16:58.964Z,97884.64
2019-04-07T13:19:28.575Z,97883.97
2019-04-07T13:22:01.634Z,97898.08
2019-04-07T13:24:45.375Z,97884.46
2019-04-07T13:27:35.166Z,97887.96
2019-04-07T13:30:07.140Z,97878.65
2019-04-07T13:32:43.595Z,97873.03
2019-04-07T13:35:14.826Z,97892.98
2019-04-07T13:37:51.156Z,97895.94
2019-04-07T13:40:21.771Z,97888.61
2019-04-07T13:43:04.431Z,97886.58
2019-04-07T13:45:49.467Z,97890.56
2019-04-07T13:48:20.842Z,97887.77
2019-04-07T13:50:51.326Z,97889.75
2019-04-07T13:53:37.877Z,97893.74
2019-04-07T13:56:12.960Z,97893.41
2019-04-07T13:58:55.484Z,97892.25
2019-04-07T14:01:41.635Z,97891.57
2019-04-07T14:04:14.648Z,97891.38
2019-04-07T14:06:50.444Z,97894.30
2019-04-07T14:09:27.184Z,97886.00
2019-04-07T14:12:10.164Z,97887.13
2019-04-07T14:14:36.158Z,97883.95
2019-04-07T14:17:12.531Z,97883.60
2019-04-07T14:19:45.261Z,97883.95
2019-04-07T14:22:15.542Z,97881.10
2019-04-07T14:24:46.107Z,97876.95
2019-04-07T14:27:32.375Z,97885.09
2019-04-07T14:30:02.834Z,97891.22
2019-04-07T14:32:36.342Z,97890.21
2019-04-07T14:35:08.363Z,97888.52
2019-04-07T14:37:53.626Z,97891.18
2019-04-07T14:40:32.424Z,97890.34
2019-04-07T14:43:02.628Z,97891.83
2019-04-07T14:45:32.688Z,97884.86
2019-04-07T14:48:21.684Z,97885.66
2019-04-07T14:50:56.046Z,97878.22
2019-04-07T14:53:42.046Z,97887.52
2019-04-07T14:56:12.512Z,97895.17
2019-04-07T14:58:48.931Z,97892.31
2019-04-07T15:01:20.289Z,97888.16
2019-04-07T15:03:48.798Z,97886.31
2019-04-07T15:06:17.379Z,97889.97
2019-04-07T15:09:06.547Z,97887.16
2019-04-07T15:11:38.686Z,97892.11
2019-04-07T15:14:07.166Z,97888.77
2019-04-07T15:16:36.745Z,97885.11
2019-04-07T15:19:05.259Z,97883.09
2019-04-07T15:21:33.678Z,97889.89
2019-04-07T15:24:05.658Z,97884.41
2019-04-07T15:26:32.572Z,97890.70
2019-04-07T15:29:05.293Z,97894.03
2019-04-07T15:31:33.078Z,97894.31
2019-04-07T15:34:04.213Z,97887.67
2019-04-07T15:36:31.645Z,97887.63
2019-04-07T15:39:01.241Z,97894.59
2019-04-07T15:41:29.613Z,97889.76
2019-04-07T15:43:58.480Z,97892.70
2019-04-07T15:46:27.018Z,97902.31
2019-04-07T15:48:56.741Z,97899.81
2019-04-07T15:51:26.244Z,97896.64
2019-04-07T15:53:55.362Z,97898.48
2019-04-07T15:56:24.098Z,97902.80
2019-04-07T15:58:52.912Z,97906.31
2019-04-07T16:01:21.754Z,97911.50
2019-04-07T16:03:52.620Z,97908.16
2019-04-07T16:06:20.642Z,97908.16
2019-04-07T16:08:49.824Z,97920.11
2019-04-07T16:11:18.978Z,97920.11
2019-04-07T16:13:47.616Z,97915.77
2019-04-07T16:16:16.014Z,97915.44
2019-04-07T16:18:45.428Z,97920.75
2019-04-07T16:21:14.341Z,97917.73
2019-04-07T16:23:43.129Z,97927.39
2019-04-07T16:26:11.877Z,97934.03
2019-04-07T16:28:43.269Z,97930.53
2019-04-07T16:31:10.583Z,97933.19
2019-04-07T16:33:39.793Z,97930.20
2019-04-07T16:36:09.186Z,97932.50
2019-04-07T16:38:38.499Z,97928.34
2019-04-07T16:41:07.854Z,97935.14
2019-04-07T16:43:37.765Z,97934.09
2019-04-07T16:46:06.711Z,97939.92
2019-04-07T16:48:39.232Z,97940.72
2019-04-07T16:51:05.961Z,97944.86
2019-04-07T16:53:37.948Z,97944.17
2019-04-07T16:56:05.307Z,97947.13
2019-04-07T16:58:37.080Z,97955.05
2019-04-07T17:01:04.640Z,97952.50
2019-04-07T17:03:33.269Z,97960.29
2019-04-07T17:06:02.901Z,97964.58
2019-04-07T17:08:31.800Z,97963.05
2019-04-07T17:11:04.464Z,97965.85
2019-04-07T17:13:39.489Z,97967.33
2019-04-07T17:16:02.709Z,97968.97
2019-04-07T17:18:43.066Z,97969.94
2019-04-07T17:21:15.669Z,97964.45
2019-04-07T17:23:45.520Z,97972.56
2019-04-07T17:26:14.298Z,97972.72
2019-04-07T17:28:45.217Z,97967.89
2019-04-07T17:31:14.294Z,97974.16
2019-04-07T17:33:43.071Z,97981.31
2019-04-07T17:36:15.361Z,97978.81
2019-04-07T17:38:44.226Z,97985.09
2019-04-07T17:41:15.569Z,97974.98
2019-04-07T17:43:59.277Z,97982.26
2019-04-07T17:46:44.482Z,97983.58
2019-04-07T17:49:33.091Z,97987.83
2019-04-07T17:52:19.749Z,97991.48
2019-04-07T17:55:06.346Z,97993.96
2019-04-07T17:57:42.851Z,97993.11
2019-04-07T18:00:22.223Z,97995.92
2019-04-07T18:02:54.902Z,98006.53
2019-04-07T18:05:26.156Z,98006.17
2019-04-07T18:08:01.810Z,98006.66
2019-04-07T18:10:34.998Z,98015.58
2019-04-07T18:13:22.867Z,98015.24
2019-04-07T18:16:12.167Z,98017.89
2019-04-07T18:18:59.436Z,98015.73
2019-04-07T18:21:49.748Z,98019.52
2019-04-07T18:24:29.537Z,98022.17
2019-04-07T18:27:15.918Z,98029.30
2019-04-07T18:30:00.753Z,98029.30
2019-04-07T18:32:45.375Z,98032.80
2019-04-07T18:35:19.482Z,98029.77
2019-04-07T18:38:08.851Z,98041.72
2019-04-07T18:40:37.288Z,98039.91
2019-04-07T18:43:08.141Z,98048.02
2019-04-07T18:45:47.778Z,98045.36
2019-04-07T18:48:24.689Z,98047.65
2019-04-07T18:50:53.406Z,98054.28
2019-04-07T18:53:26.202Z,98059.11
2019-04-07T18:55:58.054Z,98060.91
2019-04-07T18:58:28.699Z,98064.08
2019-04-07T19:01:14.480Z,98073.70
2019-04-07T19:03:53.634Z,98073.70
2019-04-07T19:06:26.520Z,98079.48
2019-04-07T19:09:00.035Z,98081.81
2019-04-07T19:11:34.213Z,98084.79
2019-04-07T19:14:30.782Z,98087.45
2019-04-07T19:16:49.989Z,98089.28
2019-04-07T19:19:16.483Z,98087.27
2019-04-07T19:21:47.554Z,98088.59
2019-04-07T19:24:21.336Z,98095.22
2019-04-07T19:27:17.294Z,98096.18
2019-04-07T19:29:41.260Z,98095.37
2019-04-07T19:32:27.765Z,98106.46
2019-04-07T19:35:15.235Z,98103.47
2019-04-07T19:37:47.353Z,98096.98
2019-04-07T19:40:27.983Z,98102.30
2019-04-07T19:43:03.886Z,98104.10
2019-04-07T19:45:46.929Z,98103.41
2019-04-07T19:48:17.607Z,98102.08
2019-04-07T19:51:00.377Z,98107.05
2019-04-07T19:53:32.632Z,98107.86
2019-04-07T19:56:18.973Z,98105.21
2019-04-07T19:58:48.986Z,98106.69
2019-04-07T20:01:29.188Z,98107.67
2019-04-07T20:03:59.830Z,98105.02
2019-04-07T20:06:48.448Z,98107.97
2019-04-07T20:09:24.314Z,98107.97
2019-04-07T20:12:06.471Z,98109.41
2019-04-07T20:14:47.393Z,98105.03
2019-04-07T20:17:24.477Z,98105.03
2019-04-07T20:20:11.222Z,98112.58
2019-04-07T20:22:58.514Z,98112.06
2019-04-07T20:25:28.822Z,98113.06
2019-04-07T20:28:10.955Z,98113.06
2019-04-07T20:30:51.459Z,98114.87
2019-04-07T20:33:31.041Z,98115.38
2019-04-07T20:35:59.100Z,98113.69
2019-04-07T20:38:29.937Z,98118.98
2019-04-07T20:41:12.060Z,98118.66
2019-04-07T20:43:40.823Z,98124.11
2019-04-07T20:46:10.997Z,98121.94
2019-04-07T20:48:43.526Z,98126.06
2019-04-07T20:51:17.455Z,98116.44
2019-04-07T20:53:48.015Z,98118.25
2019-04-07T20:56:23.549Z,98119.87
2019-04-07T20:59:01.543Z,98118.17
2019-04-07T21:01:31.120Z,98119.65
2019-04-07T21:04:07.351Z,98117.47
2019-04-07T21:06:58.946Z,98111.84
2019-04-07T21:09:27.307Z,98115.48
2019-04-07T21:12:00.798Z,98112.76
2019-04-07T21:14:43.156Z,98119.86
2019-04-07T21:17:18.937Z,98118.83
2019-04-07T21:20:01.995Z,98119.67
2019-04-07T21:22:38.980Z,98117.80
2019-04-07T21:25:15.624Z,98117.57
2019-04-07T21:27:52.646Z,98120.73
2019-04-07T21:30:39.911Z,98123.16
2019-04-07T21:33:15.945Z,98123.64
2019-04-07T21:35:58.902Z,98125.11
2019-04-07T21:38:31.417Z,98127.06
2019-04-07T21:41:01.951Z,98120.58
2019-04-07T21:43:31.981Z,98126.02
2019-04-07T21:46:20.186Z,98126.53
2019-04-07T21:48:49.070Z,98120.87
2019-04-07T21:51:19.480Z,98122.81
2019-04-07T21:53:49.502Z,98128.63
2019-04-07T21:56:32.776Z,98123.80
2019-04-07T21:59:03.250Z,98123.44
2019-04-07T22:01:48.907Z,98124.77
2019-04-07T22:04:25.308Z,98131.02
2019-04-07T22:06:59.616Z,98137.31
2019-04-07T22:09:30.294Z,98128.18
2019-04-07T22:11:58.656Z,98133.96
2019-04-07T22:14:27.048Z,98130.94
2019-04-07T22:16:55.436Z,98134.10
2019-04-07T22:19:24.379Z,98133.25
2019-04-07T22:21:55.756Z,98140.87
2019-04-07T22:24:22.892Z,98135.91
2019-04-07T22:26:51.592Z,98140.50
2019-04-07T22:29:20.376Z,98138.00
2019-04-07T22:31:51.356Z,98137.15
2019-04-07T22:34:20.779Z,98146.09
2019-04-07T22:36:49.685Z,98138.28
2019-04-07T22:39:18.443Z,98137.94
2019-04-07T22:41:47.031Z,98144.06
2019-04-07T22:44:15.600Z,98147.33
2019-04-07T22:46:48.036Z,98147.47
2019-04-07T22:49:14.169Z,98147.47
2019-04-07T22:51:44.605Z,98144.11
2019-04-07T22:54:12.681Z,98143.78
2019-04-07T22:56:41.056Z,98146.09
2019-04-07T22:59:10.465Z,98147.89
2019-04-07T23:01:39.573Z,98147.05
2019-04-07T23:04:07.948Z,98143.08
2019-04-07T23:06:36.347Z,98147.19
2019-04-07T23:09:06.583Z,98151.16
2019-04-07T23:11:35.521Z,98148.66
2019-04-07T23:14:04.422Z,98147.33
2019-04-07T23:16:32.891Z,98145.30
2019-04-07T23:19:01.273Z,98148.47
2019-04-07T23:21:29.957Z,98144.97
2019-04-07T23:23:58.329Z,98144.27
2019-04-07T23:26:26.733Z,98135.98
2019-04-07T23:28:55.114Z,98141.28
2019-04-07T23:31:23.660Z,98143.56
2019-04-07T23:33:52.276Z,98140.57
2019-04-07T23:36:20.751Z,98140.20
2019-04-07T23:38:49.634Z,98138.06
2019-04-07T23:41:18.177Z,98142.04
2019-04-07T23:43:46.564Z,98142.04
2019-04-07T23:46:22.893Z,98136.03
2019-04-07T23:48:45.594Z,98139.16
2019-04-07T23:51:14.315Z,98137.50
2019-04-07T23:54:07.493Z,98138.45
2019-04-07T23:56:36.520Z,98136.31
2019-04-07T23:59:06.241Z,98138.73
